Ringsted, Iowa
Current Conditions -  °F | °C
As of 1:52 PM on Friday 19 Dec 2014 (Local Time) from KEST Reporting Station
Haze Haze  
Wind Chill: 24°   Ceiling: 1200
Heat Index: 32°   Visibility: 5mi
Dew Point: 28°   Wind: 10mph
Humidity: 85%   Direction: 180°S
Pressure: 30.14"   Gusts: NA
Location:  43.29°N, 94.51°W
Report Text: KEST 191952Z AUTO 18009KT 5SM BR OVC012 00/M02 A3014 RMK AO2 SLP223 T00001022
Loading
Personal Weather Stations






























Interactive Weather Map New forecast layout! Learn more

10-Day Weather Forecast

Advertisements
Track Severe Weather on mobile